Helena, GA

00:06 EST le 23 décembre 2014 (GMT -0500)
SW of Chauncey | Change Station
CLOSE
Current Station
Stations météorologiques personnelles
Location: Chauncey, GA
Altitude: 367 ft
Stations météo à proximité

Alt. 367 ft 32.08 °N, 83.10 °W | Updated 1 second ago

Brouillard
Brouillard
50.2 ° F
Paraît 50.2 ° F
N
0.0
Vent Variable Vent de ESE
Gusts 0.0 mph

Aujourd'hui
Haut(e) -- | Bas -- ° F
--% Risque de précip.
Hier
Haut(e) -- | Bas -- ° F
Precip. -- pouce
7:29 AM 5:32 PM
Nouvelle lune, 2% visible
Pression 29.98 pouce
Visibilité 0.5 Miles terrestres
Nuages Couvert 200 ft
Point de rosée 48 ° F
Humidité 91%
Précipitations 0.00 pouce
Profondeur de la couche neigeuse Non disponible.
UV 0 sur 12
Pollen 1.00 sur 12
Qualité de l'air Non disponible.
Flu Activity Non disponible.
METAR KEZM 230455Z AUTO 03004KT 1/2SM FG OVC002 10/10 A2998 RMK AO2 T00990099

More Conditions Fewer Conditions

Pression 29.98 pouce
Visibilité 0.5 Miles terrestres
Nuages Couvert 200 ft
Point de rosée 48 ° F
Humidité 91%
Précipitations 0.00 pouce
Profondeur de la couche neigeuse Non disponible.
UV 0 sur 12
Pollen 1.00 sur 12
Qualité de l'air Non disponible.
Flu Activity Non disponible.
METAR KEZM 230455Z AUTO 03004KT 1/2SM FG OVC002 10/10 A2998 RMK AO2 T00990099

More Conditions Fewer Conditions

10-Day Weather Forecast

Almanac

Astronomie

Dec. 23, 2014 Lever Coucher
Temps réel
Crépuscule civil
Crépuscule nautique
Crépuscule astronomique
Lune
Durée de lumière visible
Longueur du jour
Tomorrow will be .
, % of the Moon is Illuminated

Extrêmes aujourd'hui

State Highs State Lows

Community

WunderPhotos

Upload Photos

1,779,780 Photos téléchargées !

WunderBlogs® & News

Nearby

Qualité de l'air

  Qualité de l'air Indice de la qualité de l'air Polluant
Not available.

Épaisseur de neige

Station Depth Altitude

Activité sismique

Ville Distance Mag. Time & Date
Minimum magnitude displayed is 2.5.

Températures des eaux côtières

Lieu Température

Stations météo à proximité